createdAt,value
2023-03-20T00:02:23.346Z,19.07
2023-03-20T00:04:51.032Z,19.36
2023-03-20T00:07:18.098Z,19.44
2023-03-20T00:09:45.126Z,18.79
2023-03-20T00:12:19.057Z,19.45
2023-03-20T00:14:46.276Z,19.25
2023-03-20T00:17:20.313Z,20.33
2023-03-20T00:19:47.631Z,20.15
2023-03-20T00:22:15.043Z,20.23
2023-03-20T00:24:42.068Z,19.33
2023-03-20T00:27:16.404Z,20.24
2023-03-20T00:29:44.022Z,20.11
2023-03-20T00:32:15.163Z,20.44
2023-03-20T00:34:42.734Z,20.34
2023-03-20T00:37:11.739Z,20.20
2023-03-20T00:39:39.021Z,20.18
2023-03-20T00:42:08.103Z,20.35
2023-03-20T00:44:54.297Z,20.44
2023-03-20T00:47:25.642Z,20.45
2023-03-20T00:49:54.564Z,20.42
2023-03-20T00:52:22.817Z,20.34
2023-03-20T00:54:52.045Z,20.24
2023-03-20T00:57:30.855Z,20.63
2023-03-20T01:00:29.290Z,20.64
2023-03-20T01:02:57.947Z,20.52
2023-03-20T01:05:27.517Z,20.51
2023-03-20T01:07:56.324Z,20.41
2023-03-20T01:10:30.330Z,20.56
2023-03-20T01:13:00.639Z,20.47
2023-03-20T01:15:32.162Z,20.50
2023-03-20T01:17:59.405Z,20.20
2023-03-20T01:20:30.282Z,20.40
2023-03-20T01:22:57.413Z,20.21
2023-03-20T01:25:24.599Z,20.22
2023-03-20T01:27:54.787Z,20.30
2023-03-20T01:30:28.873Z,20.39
2023-03-20T01:32:58.995Z,20.16
2023-03-20T01:35:27.679Z,20.19
2023-03-20T01:37:57.539Z,20.15
2023-03-20T01:40:45.398Z,20.34
2023-03-20T01:43:17.378Z,20.24
2023-03-20T01:46:19.711Z,20.37
2023-03-20T01:48:55.376Z,20.04
2023-03-20T01:51:28.263Z,20.33
2023-03-20T01:54:16.107Z,20.38
2023-03-20T01:57:01.632Z,20.34
2023-03-20T01:59:42.016Z,20.39
2023-03-20T02:02:10.361Z,20.15
2023-03-20T02:04:43.003Z,20.26
2023-03-20T02:07:17.049Z,20.35
2023-03-20T02:09:57.135Z,20.10
2023-03-20T02:12:36.517Z,20.22
2023-03-20T02:15:08.422Z,20.21
2023-03-20T02:17:56.543Z,19.85
2023-03-20T02:20:30.724Z,19.99
2023-03-20T02:23:37.431Z,20.24
2023-03-20T02:26:19.578Z,20.22
2023-03-20T02:29:45.486Z,19.77
2023-03-20T02:32:37.560Z,19.80
2023-03-20T02:35:53.418Z,19.85
2023-03-20T02:38:42.347Z,19.81
2023-03-20T02:41:36.935Z,19.59
2023-03-20T02:44:26.342Z,19.74
2023-03-20T02:47:08.285Z,19.63
2023-03-20T02:50:18.649Z,19.46
2023-03-20T02:53:08.634Z,19.47
2023-03-20T02:56:12.581Z,19.42
2023-03-20T02:59:01.680Z,19.41
2023-03-20T03:01:38.765Z,19.44
2023-03-20T03:04:18.224Z,19.89
2023-03-20T03:06:49.007Z,19.86
2023-03-20T03:09:23.082Z,19.99
2023-03-20T03:11:57.076Z,19.93
2023-03-20T03:14:51.873Z,20.07
2023-03-20T03:17:21.684Z,19.84
2023-03-20T03:19:59.744Z,20.09
2023-03-20T03:22:31.685Z,19.77
2023-03-20T03:24:58.956Z,19.80
2023-03-20T03:27:35.328Z,20.36
2023-03-20T03:30:38.933Z,20.72
2023-03-20T03:33:27.559Z,20.17
2023-03-20T03:36:19.064Z,19.84
2023-03-20T03:39:16.613Z,19.65
2023-03-20T03:41:52.581Z,19.23
2023-03-20T03:44:59.089Z,19.24
2023-03-20T03:47:36.366Z,19.34
2023-03-20T03:50:12.469Z,19.17
2023-03-20T03:52:41.960Z,19.17
2023-03-20T03:55:19.792Z,19.10
2023-03-20T03:58:32.451Z,18.82
2023-03-20T04:01:03.605Z,19.03
2023-03-20T04:03:45.439Z,18.57
2023-03-20T04:06:13.450Z,18.84
2023-03-20T04:08:42.055Z,17.46
2023-03-20T04:11:21.761Z,17.53
2023-03-20T04:13:50.969Z,17.92
2023-03-20T04:16:21.730Z,16.81
2023-03-20T04:18:49.352Z,17.65
2023-03-20T04:21:17.895Z,18.48
2023-03-20T04:23:45.441Z,17.36
2023-03-20T04:26:12.644Z,17.10
2023-03-20T04:28:39.747Z,18.06
2023-03-20T04:31:22.410Z,17.64
2023-03-20T04:34:08.502Z,17.29
2023-03-20T04:36:44.037Z,18.02
2023-03-20T04:39:13.796Z,18.06
2023-03-20T04:41:41.082Z,18.04
2023-03-20T04:44:08.188Z,18.44
2023-03-20T04:46:36.252Z,18.63
2023-03-20T04:49:07.927Z,18.42
2023-03-20T04:51:35.089Z,18.10
2023-03-20T04:54:02.720Z,17.76
2023-03-20T04:56:30.049Z,16.97
2023-03-20T04:59:10.576Z,18.26
2023-03-20T05:01:37.945Z,17.76
2023-03-20T05:04:05.399Z,18.23
2023-03-20T05:06:33.615Z,17.60
2023-03-20T05:09:01.107Z,17.73
2023-03-20T05:11:30.741Z,17.63
2023-03-20T05:14:35.677Z,18.59
2023-03-20T05:17:24.120Z,16.08
2023-03-20T05:20:06.747Z,16.67
2023-03-20T05:22:51.190Z,17.07
2023-03-20T05:25:50.459Z,16.38
2023-03-20T05:28:37.809Z,17.76
2023-03-20T05:31:23.539Z,17.55
2023-03-20T05:34:13.869Z,18.25
2023-03-20T05:36:59.801Z,17.95
2023-03-20T05:39:45.440Z,18.29
2023-03-20T05:42:34.634Z,18.29
2023-03-20T05:45:22.162Z,18.73
2023-03-20T05:48:08.384Z,18.95
2023-03-20T05:50:49.034Z,18.77
2023-03-20T05:53:34.739Z,18.76
2023-03-20T05:56:15.094Z,18.49
2023-03-20T05:59:06.526Z,18.63
2023-03-20T06:01:50.382Z,18.56
2023-03-20T06:04:23.700Z,18.44
2023-03-20T06:07:09.821Z,18.81
2023-03-20T06:09:38.997Z,18.77
2023-03-20T06:12:10.547Z,18.60
2023-03-20T06:14:37.897Z,18.46
2023-03-20T06:17:08.107Z,18.75
2023-03-20T06:19:35.637Z,18.59
2023-03-20T06:22:03.051Z,18.69
2023-03-20T06:24:30.805Z,17.81
2023-03-20T06:26:59.252Z,17.93
2023-03-20T06:29:27.050Z,18.33
2023-03-20T06:31:59.258Z,18.64
2023-03-20T06:34:30.189Z,18.18
2023-03-20T06:36:57.213Z,17.99
2023-03-20T06:39:24.902Z,18.47
2023-03-20T06:41:52.907Z,17.19
2023-03-20T06:44:23.565Z,17.39
2023-03-20T06:47:09.958Z,18.17
2023-03-20T06:49:37.252Z,18.07
2023-03-20T06:52:06.574Z,17.69
2023-03-20T06:54:33.897Z,16.05
2023-03-20T06:57:01.110Z,17.27
2023-03-20T06:59:28.452Z,17.45
2023-03-20T07:01:58.291Z,17.30
2023-03-20T07:04:26.368Z,18.05
2023-03-20T07:06:56.729Z,18.33
2023-03-20T07:09:24.033Z,17.15
2023-03-20T07:11:51.214Z,18.53
2023-03-20T07:14:18.461Z,18.47
2023-03-20T07:16:56.539Z,17.51
2023-03-20T07:19:23.897Z,18.20
2023-03-20T07:22:03.807Z,18.33
2023-03-20T07:24:37.125Z,18.41
2023-03-20T07:27:04.157Z,17.41
2023-03-20T07:29:33.681Z,17.01
2023-03-20T07:32:02.545Z,17.00
2023-03-20T07:34:34.404Z,17.77
2023-03-20T07:37:01.841Z,17.09
2023-03-20T07:39:30.988Z,16.15
2023-03-20T07:42:22.868Z,17.16
2023-03-20T07:44:58.691Z,16.59
2023-03-20T07:47:25.688Z,16.72
2023-03-20T07:49:52.693Z,17.38
2023-03-20T07:52:20.074Z,18.30
2023-03-20T07:54:47.441Z,17.52
2023-03-20T07:57:14.830Z,18.20
2023-03-20T07:59:41.832Z,17.87
2023-03-20T08:02:16.011Z,17.30
2023-03-20T08:04:44.359Z,16.74
2023-03-20T08:07:12.157Z,16.44
2023-03-20T08:09:39.375Z,16.86
2023-03-20T08:12:06.585Z,17.29
2023-03-20T08:14:33.754Z,16.69
2023-03-20T08:17:13.857Z,17.74
2023-03-20T08:19:42.161Z,17.97
2023-03-20T08:22:09.428Z,17.39
2023-03-20T08:24:36.591Z,16.55
2023-03-20T08:27:04.043Z,16.67
2023-03-20T08:29:31.004Z,18.01
2023-03-20T08:31:58.253Z,17.80
2023-03-20T08:34:26.347Z,18.67
2023-03-20T08:36:53.304Z,17.42
2023-03-20T08:39:20.263Z,17.62
2023-03-20T08:41:47.236Z,18.07
2023-03-20T08:44:14.460Z,19.05
2023-03-20T08:46:43.960Z,17.85
2023-03-20T08:49:10.952Z,17.59
2023-03-20T08:51:38.170Z,19.60
2023-03-20T08:54:06.014Z,18.69
2023-03-20T08:56:33.075Z,18.15
2023-03-20T08:59:00.112Z,17.44
2023-03-20T09:01:41.815Z,18.05
2023-03-20T09:04:14.626Z,17.47
2023-03-20T09:06:41.926Z,17.01
2023-03-20T09:09:09.209Z,17.48
2023-03-20T09:11:37.308Z,19.27
2023-03-20T09:14:04.344Z,19.44
2023-03-20T09:16:31.379Z,19.22
2023-03-20T09:18:58.434Z,19.08
2023-03-20T09:21:25.777Z,19.26
2023-03-20T09:23:52.751Z,18.76
2023-03-20T09:26:20.254Z,19.21
2023-03-20T09:28:47.210Z,19.19
2023-03-20T09:31:14.245Z,19.10
2023-03-20T09:33:41.253Z,19.54
2023-03-20T09:36:11.559Z,19.31
2023-03-20T09:38:41.916Z,19.75
2023-03-20T09:41:22.118Z,19.50
2023-03-20T09:44:45.641Z,19.86
2023-03-20T09:47:46.502Z,19.88
2023-03-20T09:50:34.737Z,19.85
2023-03-20T09:53:38.156Z,19.22
2023-03-20T09:56:06.755Z,19.41
2023-03-20T09:58:36.379Z,19.80
2023-03-20T10:01:06.604Z,18.58
2023-03-20T10:03:43.679Z,19.98
2023-03-20T10:06:16.986Z,20.11
2023-03-20T10:08:46.801Z,19.30
2023-03-20T10:11:24.651Z,19.80
2023-03-20T10:14:22.601Z,20.30
2023-03-20T10:17:30.431Z,20.48
2023-03-20T10:20:29.373Z,19.65
2023-03-20T10:23:07.455Z,19.40
2023-03-20T10:25:41.200Z,18.75
2023-03-20T10:28:29.783Z,19.58
2023-03-20T10:31:04.470Z,19.39
2023-03-20T10:33:49.854Z,19.72
2023-03-20T10:36:44.230Z,20.02
2023-03-20T10:39:37.792Z,19.45
2023-03-20T10:42:15.619Z,19.58
2023-03-20T10:44:51.582Z,20.07
2023-03-20T10:47:22.126Z,19.40
2023-03-20T10:50:01.794Z,20.01
2023-03-20T10:52:34.304Z,19.82
2023-03-20T10:55:26.354Z,19.67
2023-03-20T10:58:00.208Z,19.39
2023-03-20T11:00:27.286Z,19.35
2023-03-20T11:02:54.678Z,18.04
2023-03-20T11:05:31.837Z,20.59
2023-03-20T11:08:14.467Z,18.87
2023-03-20T11:10:43.230Z,19.56
2023-03-20T11:13:36.941Z,18.99
2023-03-20T11:16:24.923Z,19.24
2023-03-20T11:18:53.931Z,19.37
2023-03-20T11:21:29.236Z,19.80
2023-03-20T11:23:56.606Z,19.61
2023-03-20T11:26:37.069Z,20.08
2023-03-20T11:29:11.701Z,19.69
2023-03-20T11:31:41.045Z,19.93
2023-03-20T11:34:16.187Z,19.06
2023-03-20T11:37:13.323Z,18.95
2023-03-20T11:39:58.466Z,19.93
2023-03-20T11:42:30.414Z,19.20
2023-03-20T11:45:05.634Z,19.55
2023-03-20T11:47:35.156Z,18.92
2023-03-20T11:50:06.415Z,18.18
2023-03-20T11:52:39.393Z,18.86
2023-03-20T11:55:23.929Z,20.06
2023-03-20T11:57:51.084Z,20.20
2023-03-20T12:00:34.259Z,19.86
2023-03-20T12:03:02.724Z,19.87
2023-03-20T12:05:36.770Z,19.57
2023-03-20T12:08:25.362Z,20.26
2023-03-20T12:10:59.992Z,19.87
2023-03-20T12:13:40.196Z,20.02
2023-03-20T12:16:17.022Z,19.65
2023-03-20T12:18:52.616Z,18.78
2023-03-20T12:21:48.416Z,19.43
2023-03-20T12:24:42.267Z,19.78
2023-03-20T12:27:37.422Z,19.92
2023-03-20T12:30:14.643Z,19.61
2023-03-20T12:32:54.220Z,20.32
2023-03-20T12:35:32.042Z,20.19
2023-03-20T12:38:00.019Z,20.37
2023-03-20T12:40:44.652Z,21.03
2023-03-20T12:43:26.264Z,20.96
2023-03-20T12:46:27.544Z,20.66
2023-03-20T12:49:04.384Z,20.45
2023-03-20T12:51:52.522Z,19.97
2023-03-20T12:54:42.536Z,19.96
2023-03-20T12:57:36.604Z,20.35
2023-03-20T13:00:40.480Z,20.97
2023-03-20T13:03:54.396Z,21.03
2023-03-20T13:07:01.169Z,21.27
2023-03-20T13:09:47.872Z,21.66
2023-03-20T13:12:55.992Z,21.36
2023-03-20T13:15:59.216Z,23.63
2023-03-20T13:18:53.446Z,21.99
2023-03-20T13:21:36.720Z,21.75
2023-03-20T13:24:41.796Z,21.12
2023-03-20T13:27:48.117Z,20.73
2023-03-20T13:30:29.077Z,20.87
2023-03-20T13:33:34.826Z,21.70
2023-03-20T13:36:39.038Z,22.01
2023-03-20T13:39:25.362Z,21.95
2023-03-20T13:41:53.642Z,21.62
2023-03-20T13:44:27.422Z,20.76
2023-03-20T13:47:02.485Z,20.97
2023-03-20T13:49:59.488Z,20.92
2023-03-20T13:52:37.463Z,21.30
2023-03-20T13:55:42.103Z,21.83
2023-03-20T13:58:27.845Z,22.15
2023-03-20T14:01:23.853Z,25.94
2023-03-20T14:03:53.186Z,21.66
2023-03-20T14:06:32.325Z,21.65
2023-03-20T14:09:00.313Z,23.45
2023-03-20T14:11:37.500Z,23.51
2023-03-20T14:14:16.984Z,22.94
2023-03-20T14:16:44.218Z,21.77
2023-03-20T14:19:21.084Z,22.07
2023-03-20T14:21:52.980Z,21.92
2023-03-20T14:24:21.224Z,22.03
2023-03-20T14:26:58.982Z,21.49
2023-03-20T14:29:38.300Z,21.02
2023-03-20T14:32:14.584Z,21.07
2023-03-20T14:34:52.282Z,20.93
2023-03-20T14:37:58.781Z,20.61
2023-03-20T14:40:32.689Z,20.69
2023-03-20T14:43:06.310Z,20.41
2023-03-20T14:45:47.422Z,21.37
2023-03-20T14:48:35.236Z,21.14
2023-03-20T14:51:20.430Z,21.11
2023-03-20T14:53:58.834Z,19.90
2023-03-20T14:56:33.578Z,20.32
2023-03-20T14:59:07.381Z,21.11
2023-03-20T15:01:53.066Z,21.23
2023-03-20T15:04:41.116Z,20.61
2023-03-20T15:07:28.924Z,21.28
2023-03-20T15:10:00.214Z,21.09
2023-03-20T15:12:31.472Z,21.06
2023-03-20T15:15:04.790Z,21.08
2023-03-20T15:17:41.305Z,20.72
2023-03-20T15:20:29.389Z,20.76
2023-03-20T15:23:00.497Z,20.61
2023-03-20T15:25:44.221Z,20.26
2023-03-20T15:28:21.294Z,20.95
2023-03-20T15:30:53.406Z,20.80
2023-03-20T15:33:26.647Z,20.86
2023-03-20T15:35:53.770Z,20.84
2023-03-20T15:38:21.802Z,20.17
2023-03-20T15:40:51.472Z,19.96
2023-03-20T15:43:25.857Z,20.05
2023-03-20T15:46:14.093Z,19.98
2023-03-20T15:48:46.398Z,19.38
2023-03-20T15:51:13.391Z,19.65
2023-03-20T15:53:44.624Z,20.21
2023-03-20T15:56:20.392Z,20.66
2023-03-20T15:58:52.417Z,20.34
2023-03-20T16:01:23.215Z,20.00
2023-03-20T16:03:52.309Z,19.90
2023-03-20T16:06:22.424Z,20.19
2023-03-20T16:09:07.361Z,20.31
2023-03-20T16:11:44.752Z,20.42
2023-03-20T16:14:24.597Z,20.03
2023-03-20T16:16:56.515Z,20.42
2023-03-20T16:19:26.325Z,20.33
2023-03-20T16:22:13.754Z,20.59
2023-03-20T16:24:41.477Z,20.22
2023-03-20T16:27:09.869Z,20.29
2023-03-20T16:29:38.233Z,20.63
2023-03-20T16:32:18.192Z,20.58
2023-03-20T16:34:51.220Z,20.75
2023-03-20T16:37:27.869Z,20.91
2023-03-20T16:40:28.490Z,20.85
2023-03-20T16:42:57.294Z,19.58
2023-03-20T16:45:34.681Z,20.31
2023-03-20T16:48:13.677Z,20.66
2023-03-20T16:51:00.760Z,20.53
2023-03-20T16:53:35.989Z,20.70
2023-03-20T16:56:05.110Z,20.75
2023-03-20T16:58:35.201Z,20.36
2023-03-20T17:01:05.716Z,19.70
2023-03-20T17:03:56.466Z,20.77
2023-03-20T17:06:25.499Z,20.52
2023-03-20T17:08:56.478Z,20.88
2023-03-20T17:11:37.643Z,20.61
2023-03-20T17:14:04.976Z,20.40
2023-03-20T17:16:33.963Z,20.63
2023-03-20T17:19:05.524Z,20.20
2023-03-20T17:21:32.576Z,20.05
2023-03-20T17:24:00.690Z,20.36
2023-03-20T17:26:27.714Z,20.55
2023-03-20T17:28:55.943Z,19.58
2023-03-20T17:31:23.474Z,20.26
2023-03-20T17:33:50.864Z,20.62
2023-03-20T17:36:28.255Z,18.77
2023-03-20T17:38:57.187Z,19.49
2023-03-20T17:41:25.913Z,20.12
2023-03-20T17:43:53.321Z,20.32
2023-03-20T17:46:27.876Z,20.44
2023-03-20T17:49:06.279Z,20.78
2023-03-20T17:51:34.838Z,19.89
2023-03-20T17:54:01.803Z,20.40
2023-03-20T17:56:32.435Z,20.44
2023-03-20T17:59:00.666Z,20.57
2023-03-20T18:01:29.333Z,20.52
2023-03-20T18:03:58.250Z,20.75
2023-03-20T18:06:31.040Z,21.06
2023-03-20T18:08:59.839Z,21.02
2023-03-20T18:11:28.284Z,20.92
2023-03-20T18:13:55.428Z,20.55
2023-03-20T18:16:25.784Z,20.77
2023-03-20T18:18:53.965Z,19.91
2023-03-20T18:21:21.441Z,20.20
2023-03-20T18:23:48.726Z,20.41
2023-03-20T18:26:25.909Z,20.72
2023-03-20T18:28:55.201Z,20.86
2023-03-20T18:31:22.798Z,20.74
2023-03-20T18:33:51.829Z,19.98
2023-03-20T18:36:22.807Z,20.28
2023-03-20T18:38:51.578Z,20.52
2023-03-20T18:41:19.227Z,20.31
2023-03-20T18:43:46.693Z,20.04
2023-03-20T18:46:19.438Z,19.34
2023-03-20T18:48:48.295Z,19.99
2023-03-20T18:51:16.110Z,19.63
2023-03-20T18:53:43.798Z,19.97
2023-03-20T18:56:19.058Z,19.88
2023-03-20T18:58:47.621Z,20.36
2023-03-20T19:01:15.980Z,20.36
2023-03-20T19:03:44.586Z,20.10
2023-03-20T19:06:18.683Z,19.43
2023-03-20T19:08:47.613Z,20.03
2023-03-20T19:11:17.351Z,19.50
2023-03-20T19:13:52.298Z,18.95
2023-03-20T19:16:25.168Z,19.34
2023-03-20T19:18:54.649Z,20.33
2023-03-20T19:21:28.840Z,19.64
2023-03-20T19:24:01.857Z,20.27
2023-03-20T19:26:31.202Z,20.61
2023-03-20T19:29:01.171Z,20.44
2023-03-20T19:31:29.810Z,20.19
2023-03-20T19:33:56.940Z,18.65
2023-03-20T19:36:36.229Z,19.61
2023-03-20T19:39:07.165Z,19.55
2023-03-20T19:41:34.854Z,19.79
2023-03-20T19:44:01.989Z,20.18
2023-03-20T19:46:45.257Z,19.63
2023-03-20T19:49:19.022Z,20.28
2023-03-20T19:51:46.818Z,18.54
2023-03-20T19:54:14.294Z,19.01
2023-03-20T19:56:41.644Z,19.51
2023-03-20T19:59:08.601Z,19.53
2023-03-20T20:01:36.472Z,19.49
2023-03-20T20:04:04.039Z,18.90
2023-03-20T20:06:32.969Z,19.00
2023-03-20T20:09:01.813Z,19.05
2023-03-20T20:11:31.897Z,18.99
2023-03-20T20:14:08.993Z,19.58
2023-03-20T20:16:42.968Z,19.96
2023-03-20T20:19:10.972Z,19.57
2023-03-20T20:24:25.867Z,19.29
2023-03-20T20:27:11.477Z,19.60
2023-03-20T20:29:42.760Z,19.55
2023-03-20T20:32:09.948Z,19.28
2023-03-20T20:40:16.917Z,19.61
2023-03-20T20:42:47.575Z,19.42
2023-03-20T20:45:15.323Z,19.50
2023-03-20T20:47:44.968Z,19.75
2023-03-20T20:50:15.002Z,19.48
2023-03-20T20:52:43.083Z,19.63
2023-03-20T20:55:22.465Z,19.67
2023-03-20T20:57:52.914Z,19.64
2023-03-20T21:00:27.373Z,19.49
2023-03-20T21:02:58.797Z,19.81
2023-03-20T21:05:26.971Z,19.87
2023-03-20T21:07:54.451Z,19.87
2023-03-20T21:10:22.349Z,19.88
2023-03-20T21:12:59.043Z,19.63
2023-03-20T21:15:27.678Z,19.56
2023-03-20T21:18:01.229Z,19.42
2023-03-20T21:20:31.087Z,19.73
2023-03-20T21:22:58.588Z,19.61
2023-03-20T21:25:39.022Z,19.53
2023-03-20T21:28:07.872Z,19.58
2023-03-20T21:30:34.990Z,19.66
2023-03-20T21:33:03.234Z,19.54
2023-03-20T21:35:30.566Z,19.66
2023-03-20T21:38:47.503Z,19.61
2023-03-20T21:40:45.696Z,19.79
2023-03-20T21:43:14.507Z,19.89
2023-03-20T21:49:19.042Z,19.55
2023-03-20T21:52:28.957Z,19.77
2023-03-20T22:00:19.162Z,19.34
2023-03-20T22:02:28.963Z,19.24
2023-03-20T22:05:42.033Z,19.15
2023-03-20T22:08:54.985Z,19.36
2023-03-20T22:19:55.962Z,19.06
2023-03-20T22:22:55.303Z,19.09
2023-03-20T22:46:55.645Z,18.91
2023-03-20T22:49:22.727Z,18.75
2023-03-20T22:52:08.344Z,18.69
2023-03-20T22:54:38.735Z,18.78
2023-03-20T22:57:06.000Z,18.88
2023-03-20T22:59:33.046Z,18.87
2023-03-20T23:02:00.416Z,18.99
2023-03-20T23:04:29.616Z,18.88
2023-03-20T23:06:57.007Z,18.77
2023-03-20T23:09:24.027Z,18.90
2023-03-20T23:11:51.322Z,18.87
2023-03-20T23:14:21.520Z,18.90
2023-03-20T23:16:50.005Z,18.82
2023-03-20T23:19:17.430Z,18.85
2023-03-20T23:21:44.434Z,18.78
2023-03-20T23:24:11.678Z,18.77
2023-03-20T23:26:38.807Z,18.74
2023-03-20T23:29:06.377Z,18.68
2023-03-20T23:31:33.387Z,18.78
2023-03-20T23:34:00.578Z,18.81
2023-03-20T23:36:42.881Z,18.90
2023-03-20T23:39:11.476Z,19.25
2023-03-20T23:44:28.645Z,18.71
2023-03-20T23:46:55.677Z,18.74
2023-03-20T23:49:23.570Z,18.86
2023-03-20T23:51:50.957Z,18.83
2023-03-20T23:54:17.940Z,18.75
2023-03-20T23:56:44.964Z,18.74
2023-03-20T23:59:20.984Z,18.69
